sensor_id;sensor_type;location;lat;lon;timestamp;P1;durP1;ratioP1;P2;durP2;ratioP2
33864;SDS011;20159;51.072;13.526;2023-04-21T00:00:16;26.95;;;23.70;;
33864;SDS011;20159;51.072;13.526;2023-04-21T00:02:41;28.77;;;23.73;;
33864;SDS011;20159;51.072;13.526;2023-04-21T00:05:07;29.13;;;23.77;;
33864;SDS011;20159;51.072;13.526;2023-04-21T00:07:35;30.88;;;24.90;;
33864;SDS011;20159;51.072;13.526;2023-04-21T00:10:02;29.50;;;24.02;;
33864;SDS011;20159;51.072;13.526;2023-04-21T00:12:29;29.98;;;24.17;;
33864;SDS011;20159;51.072;13.526;2023-04-21T00:14:55;29.65;;;23.63;;
33864;SDS011;20159;51.072;13.526;2023-04-21T00:17:20;29.45;;;24.13;;
33864;SDS011;20159;51.072;13.526;2023-04-21T00:19:46;29.65;;;24.23;;
33864;SDS011;20159;51.072;13.526;2023-04-21T00:22:11;27.95;;;23.50;;
33864;SDS011;20159;51.072;13.526;2023-04-21T00:24:38;27.33;;;23.80;;
33864;SDS011;20159;51.072;13.526;2023-04-21T00:27:04;28.15;;;24.13;;
33864;SDS011;20159;51.072;13.526;2023-04-21T00:29:30;27.65;;;24.65;;
33864;SDS011;20159;51.072;13.526;2023-04-21T00:31:55;28.15;;;24.65;;
33864;SDS011;20159;51.072;13.526;2023-04-21T00:34:21;29.20;;;25.85;;
33864;SDS011;20159;51.072;13.526;2023-04-21T00:36:46;30.67;;;26.95;;
33864;SDS011;20159;51.072;13.526;2023-04-21T00:39:12;32.30;;;26.70;;
33864;SDS011;20159;51.072;13.526;2023-04-21T00:41:38;31.38;;;24.92;;
33864;SDS011;20159;51.072;13.526;2023-04-21T00:44:07;25.35;;;22.58;;
33864;SDS011;20159;51.072;13.526;2023-04-21T00:46:34;25.73;;;21.77;;
33864;SDS011;20159;51.072;13.526;2023-04-21T00:49:02;25.02;;;21.70;;
33864;SDS011;20159;51.072;13.526;2023-04-21T00:51:29;25.77;;;21.42;;
33864;SDS011;20159;51.072;13.526;2023-04-21T00:53:57;26.10;;;21.02;;
33864;SDS011;20159;51.072;13.526;2023-04-21T00:56:24;24.73;;;20.88;;
33864;SDS011;20159;51.072;13.526;2023-04-21T00:58:51;24.95;;;20.52;;
33864;SDS011;20159;51.072;13.526;2023-04-21T01:01:17;23.20;;;20.52;;
33864;SDS011;20159;51.072;13.526;2023-04-21T01:03:43;25.45;;;20.58;;
33864;SDS011;20159;51.072;13.526;2023-04-21T01:06:10;25.33;;;22.05;;
33864;SDS011;20159;51.072;13.526;2023-04-21T01:08:35;26.55;;;21.52;;
33864;SDS011;20159;51.072;13.526;2023-04-21T01:11:08;25.10;;;21.27;;
33864;SDS011;20159;51.072;13.526;2023-04-21T01:13:35;25.50;;;22.60;;
33864;SDS011;20159;51.072;13.526;2023-04-21T01:16:00;28.00;;;22.95;;
33864;SDS011;20159;51.072;13.526;2023-04-21T01:18:26;26.52;;;22.98;;
33864;SDS011;20159;51.072;13.526;2023-04-21T01:20:51;30.02;;;24.15;;
33864;SDS011;20159;51.072;13.526;2023-04-21T01:23:17;28.40;;;24.17;;
33864;SDS011;20159;51.072;13.526;2023-04-21T01:25:44;27.95;;;24.02;;
33864;SDS011;20159;51.072;13.526;2023-04-21T01:28:11;28.00;;;23.30;;
33864;SDS011;20159;51.072;13.526;2023-04-21T01:30:36;30.65;;;23.27;;
33864;SDS011;20159;51.072;13.526;2023-04-21T01:33:02;25.27;;;21.38;;
33864;SDS011;20159;51.072;13.526;2023-04-21T01:35:28;29.58;;;23.42;;
33864;SDS011;20159;51.072;13.526;2023-04-21T01:37:53;25.08;;;21.00;;
33864;SDS011;20159;51.072;13.526;2023-04-21T01:40:19;25.15;;;20.35;;
33864;SDS011;20159;51.072;13.526;2023-04-21T01:42:45;28.08;;;21.90;;
33864;SDS011;20159;51.072;13.526;2023-04-21T01:45:10;25.67;;;21.77;;
33864;SDS011;20159;51.072;13.526;2023-04-21T01:47:36;25.77;;;21.35;;
33864;SDS011;20159;51.072;13.526;2023-04-21T01:50:02;24.77;;;21.10;;
33864;SDS011;20159;51.072;13.526;2023-04-21T01:52:28;25.60;;;21.55;;
33864;SDS011;20159;51.072;13.526;2023-04-21T01:54:53;25.23;;;22.33;;
33864;SDS011;20159;51.072;13.526;2023-04-21T01:57:19;26.42;;;22.50;;
33864;SDS011;20159;51.072;13.526;2023-04-21T01:59:45;29.92;;;21.98;;
33864;SDS011;20159;51.072;13.526;2023-04-21T02:02:12;26.45;;;22.75;;
33864;SDS011;20159;51.072;13.526;2023-04-21T02:04:37;25.38;;;21.73;;
33864;SDS011;20159;51.072;13.526;2023-04-21T02:07:03;27.10;;;21.65;;
33864;SDS011;20159;51.072;13.526;2023-04-21T02:09:28;24.98;;;20.65;;
33864;SDS011;20159;51.072;13.526;2023-04-21T02:11:54;24.70;;;19.98;;
33864;SDS011;20159;51.072;13.526;2023-04-21T02:14:21;28.92;;;22.75;;
33864;SDS011;20159;51.072;13.526;2023-04-21T02:16:46;27.02;;;22.77;;
33864;SDS011;20159;51.072;13.526;2023-04-21T02:19:12;24.55;;;21.00;;
33864;SDS011;20159;51.072;13.526;2023-04-21T02:21:37;26.48;;;22.27;;
33864;SDS011;20159;51.072;13.526;2023-04-21T02:24:03;26.88;;;23.13;;
33864;SDS011;20159;51.072;13.526;2023-04-21T02:26:28;27.02;;;22.55;;
33864;SDS011;20159;51.072;13.526;2023-04-21T02:28:54;26.75;;;22.75;;
33864;SDS011;20159;51.072;13.526;2023-04-21T02:31:20;25.77;;;22.30;;
33864;SDS011;20159;51.072;13.526;2023-04-21T02:33:45;27.20;;;23.20;;
33864;SDS011;20159;51.072;13.526;2023-04-21T02:36:11;25.85;;;22.13;;
33864;SDS011;20159;51.072;13.526;2023-04-21T02:38:36;29.00;;;24.50;;
33864;SDS011;20159;51.072;13.526;2023-04-21T02:41:02;26.30;;;22.88;;
33864;SDS011;20159;51.072;13.526;2023-04-21T02:43:27;32.28;;;25.75;;
33864;SDS011;20159;51.072;13.526;2023-04-21T02:45:53;27.08;;;23.15;;
33864;SDS011;20159;51.072;13.526;2023-04-21T02:48:18;27.92;;;24.10;;
33864;SDS011;20159;51.072;13.526;2023-04-21T02:50:47;31.92;;;25.55;;
33864;SDS011;20159;51.072;13.526;2023-04-21T02:53:13;27.83;;;23.65;;
33864;SDS011;20159;51.072;13.526;2023-04-21T02:55:39;28.77;;;23.02;;
33864;SDS011;20159;51.072;13.526;2023-04-21T02:58:04;29.75;;;22.65;;
33864;SDS011;20159;51.072;13.526;2023-04-21T03:00:31;28.05;;;23.67;;
33864;SDS011;20159;51.072;13.526;2023-04-21T03:02:56;30.17;;;23.95;;
33864;SDS011;20159;51.072;13.526;2023-04-21T03:05:22;29.75;;;23.52;;
33864;SDS011;20159;51.072;13.526;2023-04-21T03:07:47;30.02;;;23.90;;
33864;SDS011;20159;51.072;13.526;2023-04-21T03:10:13;26.70;;;22.73;;
33864;SDS011;20159;51.072;13.526;2023-04-21T03:12:38;27.73;;;22.83;;
33864;SDS011;20159;51.072;13.526;2023-04-21T03:15:04;26.30;;;21.45;;
33864;SDS011;20159;51.072;13.526;2023-04-21T03:17:30;26.50;;;21.98;;
33864;SDS011;20159;51.072;13.526;2023-04-21T03:19:55;24.85;;;21.65;;
33864;SDS011;20159;51.072;13.526;2023-04-21T03:22:20;28.95;;;22.92;;
33864;SDS011;20159;51.072;13.526;2023-04-21T03:24:46;27.90;;;23.17;;
33864;SDS011;20159;51.072;13.526;2023-04-21T03:27:11;24.67;;;21.38;;
33864;SDS011;20159;51.072;13.526;2023-04-21T03:29:37;25.88;;;22.80;;
33864;SDS011;20159;51.072;13.526;2023-04-21T03:32:02;28.58;;;22.75;;
33864;SDS011;20159;51.072;13.526;2023-04-21T03:34:28;27.98;;;22.20;;
33864;SDS011;20159;51.072;13.526;2023-04-21T03:36:53;24.23;;;20.40;;
33864;SDS011;20159;51.072;13.526;2023-04-21T03:39:19;24.75;;;22.08;;
33864;SDS011;20159;51.072;13.526;2023-04-21T03:41:45;27.95;;;21.73;;
33864;SDS011;20159;51.072;13.526;2023-04-21T03:44:11;24.17;;;21.15;;
33864;SDS011;20159;51.072;13.526;2023-04-21T03:46:36;24.65;;;21.40;;
33864;SDS011;20159;51.072;13.526;2023-04-21T03:49:02;25.98;;;20.85;;
33864;SDS011;20159;51.072;13.526;2023-04-21T03:51:27;23.42;;;20.55;;
33864;SDS011;20159;51.072;13.526;2023-04-21T03:53:53;27.42;;;23.10;;
33864;SDS011;20159;51.072;13.526;2023-04-21T03:56:18;25.33;;;21.27;;
33864;SDS011;20159;51.072;13.526;2023-04-21T03:58:44;25.10;;;21.13;;
33864;SDS011;20159;51.072;13.526;2023-04-21T04:01:10;26.13;;;22.48;;
33864;SDS011;20159;51.072;13.526;2023-04-21T04:03:35;27.45;;;21.83;;
33864;SDS011;20159;51.072;13.526;2023-04-21T04:06:00;26.65;;;22.65;;
33864;SDS011;20159;51.072;13.526;2023-04-21T04:08:28;27.67;;;22.25;;
33864;SDS011;20159;51.072;13.526;2023-04-21T04:10:53;22.98;;;20.42;;
33864;SDS011;20159;51.072;13.526;2023-04-21T04:13:20;25.58;;;21.90;;
33864;SDS011;20159;51.072;13.526;2023-04-21T04:15:46;24.50;;;20.95;;
33864;SDS011;20159;51.072;13.526;2023-04-21T04:18:12;26.13;;;21.52;;
33864;SDS011;20159;51.072;13.526;2023-04-21T04:20:37;24.75;;;21.55;;
33864;SDS011;20159;51.072;13.526;2023-04-21T04:23:03;24.45;;;21.85;;
33864;SDS011;20159;51.072;13.526;2023-04-21T04:25:28;24.20;;;20.67;;
33864;SDS011;20159;51.072;13.526;2023-04-21T04:27:54;22.65;;;20.25;;
33864;SDS011;20159;51.072;13.526;2023-04-21T04:30:21;23.88;;;19.58;;
33864;SDS011;20159;51.072;13.526;2023-04-21T04:32:47;21.88;;;18.73;;
33864;SDS011;20159;51.072;13.526;2023-04-21T04:35:13;24.73;;;21.33;;
33864;SDS011;20159;51.072;13.526;2023-04-21T04:37:40;25.80;;;20.17;;
33864;SDS011;20159;51.072;13.526;2023-04-21T04:40:06;21.80;;;19.15;;
33864;SDS011;20159;51.072;13.526;2023-04-21T04:42:38;25.90;;;21.30;;
33864;SDS011;20159;51.072;13.526;2023-04-21T04:45:04;26.38;;;20.83;;
33864;SDS011;20159;51.072;13.526;2023-04-21T04:47:32;23.83;;;19.70;;
33864;SDS011;20159;51.072;13.526;2023-04-21T04:49:58;25.00;;;20.38;;
33864;SDS011;20159;51.072;13.526;2023-04-21T04:52:23;24.42;;;20.73;;
33864;SDS011;20159;51.072;13.526;2023-04-21T04:54:49;24.73;;;20.58;;
33864;SDS011;20159;51.072;13.526;2023-04-21T04:57:15;25.33;;;19.88;;
33864;SDS011;20159;51.072;13.526;2023-04-21T04:59:40;23.48;;;20.10;;
33864;SDS011;20159;51.072;13.526;2023-04-21T05:02:06;21.08;;;18.50;;
33864;SDS011;20159;51.072;13.526;2023-04-21T05:04:32;24.23;;;18.45;;
33864;SDS011;20159;51.072;13.526;2023-04-21T05:06:58;28.27;;;19.55;;
33864;SDS011;20159;51.072;13.526;2023-04-21T05:09:23;19.75;;;17.65;;
33864;SDS011;20159;51.072;13.526;2023-04-21T05:11:49;19.38;;;17.27;;
33864;SDS011;20159;51.072;13.526;2023-04-21T05:14:15;18.73;;;16.73;;
33864;SDS011;20159;51.072;13.526;2023-04-21T05:16:42;19.10;;;16.55;;
33864;SDS011;20159;51.072;13.526;2023-04-21T05:19:07;17.00;;;15.25;;
33864;SDS011;20159;51.072;13.526;2023-04-21T05:21:33;19.63;;;16.45;;
33864;SDS011;20159;51.072;13.526;2023-04-21T05:23:59;17.45;;;15.60;;
33864;SDS011;20159;51.072;13.526;2023-04-21T05:26:25;16.50;;;14.80;;
33864;SDS011;20159;51.072;13.526;2023-04-21T05:28:51;16.15;;;14.07;;
33864;SDS011;20159;51.072;13.526;2023-04-21T05:31:17;16.50;;;13.82;;
33864;SDS011;20159;51.072;13.526;2023-04-21T05:33:43;15.38;;;13.43;;
33864;SDS011;20159;51.072;13.526;2023-04-21T05:36:08;13.50;;;11.63;;
33864;SDS011;20159;51.072;13.526;2023-04-21T05:38:35;15.55;;;11.70;;
33864;SDS011;20159;51.072;13.526;2023-04-21T05:41:01;15.50;;;10.48;;
33864;SDS011;20159;51.072;13.526;2023-04-21T05:43:27;17.52;;;10.85;;
33864;SDS011;20159;51.072;13.526;2023-04-21T05:45:52;15.77;;;11.13;;
33864;SDS011;20159;51.072;13.526;2023-04-21T05:48:18;15.90;;;10.98;;
33864;SDS011;20159;51.072;13.526;2023-04-21T05:50:43;13.60;;;9.77;;
33864;SDS011;20159;51.072;13.526;2023-04-21T05:53:09;12.48;;;9.77;;
33864;SDS011;20159;51.072;13.526;2023-04-21T05:55:35;13.38;;;9.02;;
33864;SDS011;20159;51.072;13.526;2023-04-21T05:58:01;11.90;;;8.85;;
33864;SDS011;20159;51.072;13.526;2023-04-21T06:00:27;9.57;;;8.07;;
33864;SDS011;20159;51.072;13.526;2023-04-21T06:02:52;14.10;;;9.25;;
33864;SDS011;20159;51.072;13.526;2023-04-21T06:05:18;14.48;;;8.70;;
33864;SDS011;20159;51.072;13.526;2023-04-21T06:07:43;12.27;;;8.65;;
33864;SDS011;20159;51.072;13.526;2023-04-21T06:10:09;11.98;;;7.15;;
33864;SDS011;20159;51.072;13.526;2023-04-21T06:12:35;9.73;;;6.53;;
33864;SDS011;20159;51.072;13.526;2023-04-21T06:15:01;9.60;;;6.72;;
33864;SDS011;20159;51.072;13.526;2023-04-21T06:17:26;9.98;;;6.70;;
33864;SDS011;20159;51.072;13.526;2023-04-21T06:19:52;10.55;;;6.68;;
33864;SDS011;20159;51.072;13.526;2023-04-21T06:22:19;10.40;;;6.15;;
33864;SDS011;20159;51.072;13.526;2023-04-21T06:24:51;9.05;;;6.70;;
33864;SDS011;20159;51.072;13.526;2023-04-21T06:27:16;9.05;;;6.47;;
33864;SDS011;20159;51.072;13.526;2023-04-21T06:29:42;10.23;;;6.43;;
33864;SDS011;20159;51.072;13.526;2023-04-21T06:32:08;12.75;;;6.88;;
33864;SDS011;20159;51.072;13.526;2023-04-21T06:34:34;10.05;;;6.63;;
33864;SDS011;20159;51.072;13.526;2023-04-21T06:37:00;9.80;;;6.22;;
33864;SDS011;20159;51.072;13.526;2023-04-21T06:39:25;9.52;;;5.88;;
33864;SDS011;20159;51.072;13.526;2023-04-21T06:41:51;10.73;;;5.95;;
33864;SDS011;20159;51.072;13.526;2023-04-21T06:44:17;10.93;;;5.45;;
33864;SDS011;20159;51.072;13.526;2023-04-21T06:46:42;8.52;;;5.43;;
33864;SDS011;20159;51.072;13.526;2023-04-21T06:49:08;9.63;;;5.10;;
33864;SDS011;20159;51.072;13.526;2023-04-21T06:51:33;8.68;;;5.85;;
33864;SDS011;20159;51.072;13.526;2023-04-21T06:53:59;8.98;;;5.07;;
33864;SDS011;20159;51.072;13.526;2023-04-21T06:56:25;8.25;;;5.25;;
33864;SDS011;20159;51.072;13.526;2023-04-21T06:58:51;6.97;;;4.75;;
33864;SDS011;20159;51.072;13.526;2023-04-21T07:01:17;8.27;;;5.10;;
33864;SDS011;20159;51.072;13.526;2023-04-21T07:03:43;7.85;;;4.72;;
33864;SDS011;20159;51.072;13.526;2023-04-21T07:06:08;6.93;;;4.63;;
33864;SDS011;20159;51.072;13.526;2023-04-21T07:08:34;7.03;;;4.65;;
33864;SDS011;20159;51.072;13.526;2023-04-21T07:11:00;6.97;;;4.32;;
33864;SDS011;20159;51.072;13.526;2023-04-21T07:13:26;9.70;;;4.57;;
33864;SDS011;20159;51.072;13.526;2023-04-21T07:15:51;10.10;;;4.43;;
33864;SDS011;20159;51.072;13.526;2023-04-21T07:18:17;7.32;;;4.50;;
33864;SDS011;20159;51.072;13.526;2023-04-21T07:20:42;7.22;;;4.18;;
33864;SDS011;20159;51.072;13.526;2023-04-21T07:23:08;5.57;;;4.05;;
33864;SDS011;20159;51.072;13.526;2023-04-21T07:25:33;8.20;;;4.45;;
33864;SDS011;20159;51.072;13.526;2023-04-21T07:27:59;6.35;;;4.43;;
33864;SDS011;20159;51.072;13.526;2023-04-21T07:30:24;5.95;;;4.30;;
33864;SDS011;20159;51.072;13.526;2023-04-21T07:32:50;10.00;;;4.43;;
33864;SDS011;20159;51.072;13.526;2023-04-21T07:35:16;7.90;;;4.28;;
33864;SDS011;20159;51.072;13.526;2023-04-21T07:37:42;8.57;;;4.03;;
33864;SDS011;20159;51.072;13.526;2023-04-21T07:40:08;8.55;;;4.55;;
33864;SDS011;20159;51.072;13.526;2023-04-21T07:42:33;7.55;;;4.15;;
33864;SDS011;20159;51.072;13.526;2023-04-21T07:44:59;7.07;;;4.15;;
33864;SDS011;20159;51.072;13.526;2023-04-21T07:47:26;8.27;;;4.07;;
33864;SDS011;20159;51.072;13.526;2023-04-21T07:49:52;7.18;;;3.85;;
33864;SDS011;20159;51.072;13.526;2023-04-21T07:52:18;7.15;;;4.10;;
33864;SDS011;20159;51.072;13.526;2023-04-21T07:54:43;7.28;;;3.78;;
33864;SDS011;20159;51.072;13.526;2023-04-21T07:57:09;6.50;;;3.88;;
33864;SDS011;20159;51.072;13.526;2023-04-21T07:59:35;6.78;;;4.28;;
33864;SDS011;20159;51.072;13.526;2023-04-21T08:02:00;8.10;;;4.28;;
33864;SDS011;20159;51.072;13.526;2023-04-21T08:04:26;6.00;;;4.00;;
33864;SDS011;20159;51.072;13.526;2023-04-21T08:06:52;9.52;;;4.22;;
33864;SDS011;20159;51.072;13.526;2023-04-21T08:09:17;6.55;;;3.97;;
33864;SDS011;20159;51.072;13.526;2023-04-21T08:11:43;6.50;;;4.45;;
33864;SDS011;20159;51.072;13.526;2023-04-21T08:14:08;5.68;;;3.72;;
33864;SDS011;20159;51.072;13.526;2023-04-21T08:16:35;6.72;;;4.03;;
33864;SDS011;20159;51.072;13.526;2023-04-21T08:19:02;5.72;;;3.70;;
33864;SDS011;20159;51.072;13.526;2023-04-21T08:21:28;5.93;;;3.25;;
33864;SDS011;20159;51.072;13.526;2023-04-21T08:23:53;5.80;;;3.08;;
33864;SDS011;20159;51.072;13.526;2023-04-21T08:26:20;6.72;;;3.50;;
33864;SDS011;20159;51.072;13.526;2023-04-21T08:28:47;7.28;;;3.75;;
33864;SDS011;20159;51.072;13.526;2023-04-21T08:31:13;8.32;;;3.80;;
33864;SDS011;20159;51.072;13.526;2023-04-21T08:33:39;7.68;;;4.55;;
33864;SDS011;20159;51.072;13.526;2023-04-21T08:36:05;6.55;;;4.28;;
33864;SDS011;20159;51.072;13.526;2023-04-21T08:38:31;7.97;;;4.22;;
33864;SDS011;20159;51.072;13.526;2023-04-21T08:40:57;9.95;;;4.70;;
33864;SDS011;20159;51.072;13.526;2023-04-21T08:43:23;6.07;;;3.83;;
33864;SDS011;20159;51.072;13.526;2023-04-21T08:45:50;7.32;;;3.45;;
33864;SDS011;20159;51.072;13.526;2023-04-21T08:48:18;6.85;;;3.28;;
33864;SDS011;20159;51.072;13.526;2023-04-21T08:50:46;9.48;;;3.13;;
33864;SDS011;20159;51.072;13.526;2023-04-21T08:53:13;3.95;;;2.63;;
33864;SDS011;20159;51.072;13.526;2023-04-21T08:55:39;5.90;;;3.00;;
33864;SDS011;20159;51.072;13.526;2023-04-21T08:58:05;8.10;;;3.25;;
33864;SDS011;20159;51.072;13.526;2023-04-21T09:00:33;5.75;;;3.08;;
33864;SDS011;20159;51.072;13.526;2023-04-21T09:02:59;4.72;;;2.60;;
33864;SDS011;20159;51.072;13.526;2023-04-21T09:05:27;7.50;;;2.83;;
33864;SDS011;20159;51.072;13.526;2023-04-21T09:08:07;5.28;;;2.97;;
33864;SDS011;20159;51.072;13.526;2023-04-21T09:10:40;5.72;;;2.83;;
33864;SDS011;20159;51.072;13.526;2023-04-21T09:13:07;6.03;;;3.40;;
33864;SDS011;20159;51.072;13.526;2023-04-21T09:15:37;5.75;;;3.13;;
33864;SDS011;20159;51.072;13.526;2023-04-21T09:18:04;6.05;;;2.65;;
33864;SDS011;20159;51.072;13.526;2023-04-21T09:20:45;5.30;;;2.97;;
33864;SDS011;20159;51.072;13.526;2023-04-21T09:23:12;15.63;;;3.40;;
33864;SDS011;20159;51.072;13.526;2023-04-21T09:25:38;7.93;;;3.35;;
33864;SDS011;20159;51.072;13.526;2023-04-21T09:28:08;7.38;;;2.92;;
33864;SDS011;20159;51.072;13.526;2023-04-21T09:30:35;5.78;;;2.70;;
33864;SDS011;20159;51.072;13.526;2023-04-21T09:33:02;7.05;;;2.80;;
33864;SDS011;20159;51.072;13.526;2023-04-21T09:35:32;5.47;;;2.90;;
33864;SDS011;20159;51.072;13.526;2023-04-21T09:38:03;8.70;;;2.40;;
33864;SDS011;20159;51.072;13.526;2023-04-21T09:40:33;6.10;;;2.95;;
33864;SDS011;20159;51.072;13.526;2023-04-21T09:42:59;4.70;;;2.53;;
33864;SDS011;20159;51.072;13.526;2023-04-21T09:45:24;6.15;;;2.45;;
33864;SDS011;20159;51.072;13.526;2023-04-21T09:47:53;7.18;;;2.10;;
33864;SDS011;20159;51.072;13.526;2023-04-21T09:50:21;8.65;;;2.42;;
33864;SDS011;20159;51.072;13.526;2023-04-21T09:52:48;5.30;;;2.17;;
33864;SDS011;20159;51.072;13.526;2023-04-21T09:55:15;6.03;;;2.35;;
33864;SDS011;20159;51.072;13.526;2023-04-21T09:57:43;4.53;;;1.88;;
33864;SDS011;20159;51.072;13.526;2023-04-21T10:00:11;9.90;;;2.28;;
33864;SDS011;20159;51.072;13.526;2023-04-21T10:02:41;6.07;;;1.98;;
33864;SDS011;20159;51.072;13.526;2023-04-21T10:05:16;4.32;;;2.15;;
33864;SDS011;20159;51.072;13.526;2023-04-21T10:07:43;6.15;;;1.92;;
33864;SDS011;20159;51.072;13.526;2023-04-21T10:10:14;4.78;;;2.25;;
33864;SDS011;20159;51.072;13.526;2023-04-21T10:12:46;7.10;;;2.47;;
33864;SDS011;20159;51.072;13.526;2023-04-21T10:18:02;3.55;;;2.15;;
33864;SDS011;20159;51.072;13.526;2023-04-21T10:26:12;9.38;;;1.98;;
33864;SDS011;20159;51.072;13.526;2023-04-21T10:28:47;4.15;;;1.88;;
33864;SDS011;20159;51.072;13.526;2023-04-21T10:31:23;4.13;;;2.00;;
33864;SDS011;20159;51.072;13.526;2023-04-21T10:36:31;8.15;;;2.45;;
33864;SDS011;20159;51.072;13.526;2023-04-21T10:39:07;7.50;;;2.15;;
33864;SDS011;20159;51.072;13.526;2023-04-21T10:41:36;5.68;;;2.05;;
33864;SDS011;20159;51.072;13.526;2023-04-21T10:44:11;5.40;;;1.80;;
33864;SDS011;20159;51.072;13.526;2023-04-21T10:49:07;4.47;;;1.88;;
33864;SDS011;20159;51.072;13.526;2023-04-21T10:55:02;3.20;;;1.70;;
33864;SDS011;20159;51.072;13.526;2023-04-21T10:57:30;6.28;;;2.30;;
33864;SDS011;20159;51.072;13.526;2023-04-21T10:59:57;5.40;;;2.17;;
33864;SDS011;20159;51.072;13.526;2023-04-21T11:02:23;4.78;;;1.80;;
33864;SDS011;20159;51.072;13.526;2023-04-21T11:04:49;7.72;;;2.42;;
33864;SDS011;20159;51.072;13.526;2023-04-21T11:07:16;6.35;;;2.22;;
33864;SDS011;20159;51.072;13.526;2023-04-21T11:09:44;4.50;;;2.10;;
33864;SDS011;20159;51.072;13.526;2023-04-21T11:12:13;6.82;;;2.53;;
33864;SDS011;20159;51.072;13.526;2023-04-21T11:14:43;4.70;;;1.70;;
33864;SDS011;20159;51.072;13.526;2023-04-21T11:17:13;3.83;;;1.85;;
33864;SDS011;20159;51.072;13.526;2023-04-21T11:19:40;8.00;;;2.05;;
33864;SDS011;20159;51.072;13.526;2023-04-21T11:22:09;10.05;;;2.35;;
33864;SDS011;20159;51.072;13.526;2023-04-21T11:24:35;5.47;;;2.42;;
33864;SDS011;20159;51.072;13.526;2023-04-21T11:27:00;4.57;;;2.00;;
33864;SDS011;20159;51.072;13.526;2023-04-21T11:29:26;6.95;;;2.45;;
33864;SDS011;20159;51.072;13.526;2023-04-21T11:31:54;8.88;;;2.22;;
33864;SDS011;20159;51.072;13.526;2023-04-21T11:34:20;4.13;;;2.10;;
33864;SDS011;20159;51.072;13.526;2023-04-21T11:36:46;4.72;;;1.90;;
33864;SDS011;20159;51.072;13.526;2023-04-21T11:39:13;5.00;;;1.95;;
33864;SDS011;20159;51.072;13.526;2023-04-21T11:41:42;4.43;;;2.15;;
33864;SDS011;20159;51.072;13.526;2023-04-21T11:44:08;9.43;;;2.30;;
33864;SDS011;20159;51.072;13.526;2023-04-21T11:46:35;6.50;;;2.08;;
33864;SDS011;20159;51.072;13.526;2023-04-21T11:49:05;6.40;;;1.98;;
33864;SDS011;20159;51.072;13.526;2023-04-21T11:51:41;4.22;;;2.22;;
33864;SDS011;20159;51.072;13.526;2023-04-21T11:56:37;4.50;;;1.80;;
33864;SDS011;20159;51.072;13.526;2023-04-21T12:01:33;5.28;;;2.40;;
33864;SDS011;20159;51.072;13.526;2023-04-21T12:03:59;8.32;;;2.05;;
33864;SDS011;20159;51.072;13.526;2023-04-21T12:06:27;8.50;;;2.15;;
33864;SDS011;20159;51.072;13.526;2023-04-21T12:08:53;4.55;;;2.25;;
33864;SDS011;20159;51.072;13.526;2023-04-21T12:11:20;5.38;;;2.28;;
33864;SDS011;20159;51.072;13.526;2023-04-21T12:13:47;6.40;;;2.08;;
33864;SDS011;20159;51.072;13.526;2023-04-21T12:16:12;4.82;;;1.88;;
33864;SDS011;20159;51.072;13.526;2023-04-21T12:18:38;8.95;;;2.20;;
33864;SDS011;20159;51.072;13.526;2023-04-21T12:21:04;4.05;;;1.95;;
33864;SDS011;20159;51.072;13.526;2023-04-21T12:23:30;7.78;;;2.15;;
33864;SDS011;20159;51.072;13.526;2023-04-21T12:25:56;3.95;;;2.10;;
33864;SDS011;20159;51.072;13.526;2023-04-21T12:28:21;3.83;;;1.92;;
33864;SDS011;20159;51.072;13.526;2023-04-21T12:30:47;5.25;;;2.00;;
33864;SDS011;20159;51.072;13.526;2023-04-21T12:33:12;5.85;;;2.10;;
33864;SDS011;20159;51.072;13.526;2023-04-21T12:35:38;3.88;;;2.00;;
33864;SDS011;20159;51.072;13.526;2023-04-21T12:38:03;7.20;;;2.00;;
33864;SDS011;20159;51.072;13.526;2023-04-21T12:40:29;4.20;;;1.90;;
33864;SDS011;20159;51.072;13.526;2023-04-21T12:42:54;6.20;;;2.05;;
33864;SDS011;20159;51.072;13.526;2023-04-21T12:45:20;5.78;;;2.08;;
33864;SDS011;20159;51.072;13.526;2023-04-21T12:47:45;5.63;;;2.10;;
33864;SDS011;20159;51.072;13.526;2023-04-21T12:50:11;3.88;;;2.10;;
33864;SDS011;20159;51.072;13.526;2023-04-21T12:52:37;3.72;;;2.00;;
33864;SDS011;20159;51.072;13.526;2023-04-21T12:55:03;3.97;;;2.38;;
33864;SDS011;20159;51.072;13.526;2023-04-21T12:57:28;5.70;;;2.45;;
33864;SDS011;20159;51.072;13.526;2023-04-21T12:59:55;5.50;;;2.05;;
33864;SDS011;20159;51.072;13.526;2023-04-21T13:02:21;4.88;;;2.20;;
33864;SDS011;20159;51.072;13.526;2023-04-21T13:04:46;3.33;;;1.83;;
33864;SDS011;20159;51.072;13.526;2023-04-21T13:07:12;4.32;;;2.08;;
33864;SDS011;20159;51.072;13.526;2023-04-21T13:09:39;3.28;;;1.63;;
33864;SDS011;20159;51.072;13.526;2023-04-21T13:12:05;4.05;;;1.92;;
33864;SDS011;20159;51.072;13.526;2023-04-21T13:14:31;4.25;;;2.13;;
33864;SDS011;20159;51.072;13.526;2023-04-21T13:16:57;8.23;;;2.15;;
33864;SDS011;20159;51.072;13.526;2023-04-21T13:19:23;4.60;;;2.10;;
33864;SDS011;20159;51.072;13.526;2023-04-21T13:21:48;7.18;;;1.80;;
33864;SDS011;20159;51.072;13.526;2023-04-21T13:24:14;4.03;;;1.98;;
33864;SDS011;20159;51.072;13.526;2023-04-21T13:26:40;5.32;;;2.00;;
33864;SDS011;20159;51.072;13.526;2023-04-21T13:29:05;7.43;;;2.13;;
33864;SDS011;20159;51.072;13.526;2023-04-21T13:31:31;5.10;;;2.00;;
33864;SDS011;20159;51.072;13.526;2023-04-21T13:33:57;6.97;;;2.75;;
33864;SDS011;20159;51.072;13.526;2023-04-21T13:36:23;13.00;;;2.38;;
33864;SDS011;20159;51.072;13.526;2023-04-21T13:38:48;4.75;;;2.13;;
33864;SDS011;20159;51.072;13.526;2023-04-21T13:41:15;4.25;;;2.00;;
33864;SDS011;20159;51.072;13.526;2023-04-21T13:43:40;8.20;;;2.13;;
33864;SDS011;20159;51.072;13.526;2023-04-21T13:46:06;4.78;;;1.95;;
33864;SDS011;20159;51.072;13.526;2023-04-21T13:48:32;4.25;;;1.80;;
33864;SDS011;20159;51.072;13.526;2023-04-21T13:50:57;4.65;;;1.85;;
33864;SDS011;20159;51.072;13.526;2023-04-21T13:53:23;4.22;;;1.88;;
33864;SDS011;20159;51.072;13.526;2023-04-21T13:55:48;4.85;;;1.90;;
33864;SDS011;20159;51.072;13.526;2023-04-21T13:58:14;5.93;;;2.00;;
33864;SDS011;20159;51.072;13.526;2023-04-21T14:00:40;3.97;;;2.22;;
33864;SDS011;20159;51.072;13.526;2023-04-21T14:03:06;4.82;;;2.20;;
33864;SDS011;20159;51.072;13.526;2023-04-21T14:05:31;3.80;;;1.65;;
33864;SDS011;20159;51.072;13.526;2023-04-21T14:07:57;4.05;;;2.30;;
33864;SDS011;20159;51.072;13.526;2023-04-21T14:10:23;10.23;;;2.35;;
33864;SDS011;20159;51.072;13.526;2023-04-21T14:12:48;8.40;;;2.03;;
33864;SDS011;20159;51.072;13.526;2023-04-21T14:15:14;5.32;;;2.13;;
33864;SDS011;20159;51.072;13.526;2023-04-21T14:17:40;4.90;;;2.13;;
33864;SDS011;20159;51.072;13.526;2023-04-21T14:20:06;6.43;;;1.83;;
33864;SDS011;20159;51.072;13.526;2023-04-21T14:22:33;3.55;;;1.90;;
33864;SDS011;20159;51.072;13.526;2023-04-21T14:24:59;4.97;;;1.92;;
33864;SDS011;20159;51.072;13.526;2023-04-21T14:27:25;3.35;;;2.00;;
33864;SDS011;20159;51.072;13.526;2023-04-21T14:29:50;4.97;;;1.85;;
33864;SDS011;20159;51.072;13.526;2023-04-21T14:32:16;4.53;;;1.88;;
33864;SDS011;20159;51.072;13.526;2023-04-21T14:34:44;6.75;;;1.95;;
33864;SDS011;20159;51.072;13.526;2023-04-21T14:37:10;5.68;;;2.20;;
33864;SDS011;20159;51.072;13.526;2023-04-21T14:39:36;4.60;;;1.75;;